Time;durP1;ratioP1;P1;durP2;ratioP2;P2;SDS_P1;SDS_P2;PMS_P1;PMS_P2;Temp;Humidity;BMP_temperature;BMP_pressure;BME280_temperature;BME280_humidity;BME280_pressure;Samples;Min_cycle;Max_cycle;Signal;HPM_P1;HPM_P2
2023/01/22 00:01:03;;;;;;;8.95;5.28;;;1.40;99.90;;;;;;4880926;29;20476;-79
2023/01/22 00:03:29;;;;;;;10.77;5.13;;;1.40;99.90;;;;;;4881153;29;20123;-79
2023/01/22 00:05:54;;;;;;;13.80;5.50;;;1.40;99.90;;;;;;4880403;29;20128;-78
2023/01/22 00:08:20;;;;;;;11.10;5.22;;;1.40;99.90;;;;;;4864173;29;20365;-78
2023/01/22 00:10:53;;;;;;;12.35;5.40;;;1.40;99.90;;;;;;4881874;29;20131;-78
2023/01/22 00:13:20;;;;;;;18.27;6.55;;;2.30;99.90;;;;;;4884232;29;20044;-78
2023/01/22 00:15:46;;;;;;;14.00;6.28;;;1.80;99.90;;;;;;4870317;29;20064;-78
2023/01/22 00:18:12;;;;;;;13.90;6.30;;;1.20;99.90;;;;;;4894846;29;20074;-78
2023/01/22 00:20:38;;;;;;;14.30;6.65;;;1.20;99.90;;;;;;4880130;29;20053;-78
2023/01/22 00:23:04;;;;;;;13.40;6.03;;;1.00;99.90;;;;;;4848258;29;20041;-78
2023/01/22 00:25:29;;;;;;;12.30;6.40;;;1.10;99.90;;;;;;4879665;29;20040;-78
2023/01/22 00:27:55;;;;;;;14.50;7.30;;;1.10;99.90;;;;;;4880145;29;20107;-78
2023/01/22 00:30:21;;;;;;;15.55;7.63;;;1.00;99.90;;;;;;4879612;29;20040;-79
2023/01/22 00:32:46;;;;;;;15.33;7.33;;;1.00;99.90;;;;;;4876265;29;20430;-78
2023/01/22 00:35:12;;;;;;;16.65;7.40;;;0.90;99.90;;;;;;4887751;29;20299;-78
2023/01/22 00:37:41;;;;;;;15.38;6.85;;;1.30;99.90;;;;;;4883052;29;20044;-78
2023/01/22 00:40:07;;;;;;;14.52;7.53;;;0.80;99.90;;;;;;4886415;29;20047;-78
2023/01/22 00:42:32;;;;;;;14.82;7.30;;;0.80;99.90;;;;;;4888915;29;20040;-79
2023/01/22 00:45:01;;;;;;;14.53;6.93;;;0.80;99.90;;;;;;4864576;29;20044;-77
2023/01/22 00:47:26;;;;;;;16.67;8.00;;;0.70;99.90;;;;;;4889920;29;20284;-77
2023/01/22 00:49:52;;;;;;;15.25;7.32;;;0.60;99.90;;;;;;4874043;29;20052;-78
2023/01/22 00:52:18;;;;;;;17.20;7.82;;;0.80;99.90;;;;;;4866447;29;20036;-78
2023/01/22 00:54:44;;;;;;;17.90;8.43;;;0.70;99.90;;;;;;4884542;29;20044;-79
2023/01/22 00:57:10;;;;;;;19.05;7.65;;;1.30;99.90;;;;;;4898164;29;20115;-78
2023/01/22 00:59:36;;;;;;;19.92;7.55;;;0.40;99.90;;;;;;4886519;29;20128;-79
2023/01/22 01:02:02;;;;;;;20.60;7.45;;;0.40;99.90;;;;;;4867385;29;20119;-79
2023/01/22 01:04:28;;;;;;;19.75;8.48;;;0.40;99.90;;;;;;4897722;29;20050;-79
2023/01/22 01:06:54;;;;;;;17.67;8.27;;;0.70;99.90;;;;;;4876787;29;20049;-77
2023/01/22 01:09:19;;;;;;;19.08;8.20;;;0.40;99.90;;;;;;4880832;29;20154;-78
2023/01/22 01:11:45;;;;;;;17.42;7.88;;;0.40;99.90;;;;;;4870652;29;20493;-79
2023/01/22 01:14:11;;;;;;;16.48;8.23;;;1.10;99.90;;;;;;4862975;29;20143;-79
2023/01/22 01:16:37;;;;;;;19.05;8.52;;;0.40;99.90;;;;;;4896365;29;20111;-79
2023/01/22 01:19:06;;;;;;;21.67;9.40;;;0.80;99.90;;;;;;4882069;29;20044;-79
2023/01/22 01:21:32;;;;;;;20.58;8.20;;;1.40;99.90;;;;;;4884979;29;20124;-78
2023/01/22 01:23:59;;;;;;;16.13;8.13;;;0.40;99.90;;;;;;4881170;29;20135;-79
2023/01/22 01:26:26;;;;;;;17.23;8.77;;;0.70;99.90;;;;;;4890421;29;20040;-79
2023/01/22 01:28:52;;;;;;;17.75;8.02;;;0.50;99.90;;;;;;4888232;29;20052;-79
2023/01/22 01:31:21;;;;;;;17.35;8.48;;;0.50;99.90;;;;;;4880034;29;20048;-79
2023/01/22 01:33:47;;;;;;;21.30;9.02;;;0.50;99.90;;;;;;4866322;29;20049;-79
2023/01/22 01:36:16;;;;;;;22.05;8.43;;;1.20;99.90;;;;;;4894066;29;20043;-79
2023/01/22 01:38:42;;;;;;;21.25;7.97;;;0.50;99.90;;;;;;4872174;29;20040;-79
2023/01/22 01:41:10;;;;;;;;;;;0.50;99.90;;;;;;4880783;29;20519;-79
2023/01/22 01:43:36;;;;;;;;;;;0.50;99.90;;;;;;4897722;29;20356;-79
2023/01/22 01:46:03;;;;;;;19.23;8.57;;;0.50;99.90;;;;;;4892157;29;19929;-79
2023/01/22 01:48:42;;;;;;;18.90;9.20;;;0.50;99.90;;;;;;4880799;29;20051;-80
2023/01/22 01:51:13;;;;;;;19.95;8.85;;;0.50;99.90;;;;;;4879435;29;20055;-79
2023/01/22 01:53:41;;;;;;;18.30;9.02;;;0.50;99.90;;;;;;4863803;29;20478;-79
2023/01/22 01:56:12;;;;;;;17.17;8.27;;;0.50;99.90;;;;;;4891307;29;20048;-79
2023/01/22 01:58:41;;;;;;;17.13;8.32;;;0.50;99.90;;;;;;4870108;29;20084;-79
2023/01/22 02:01:12;;;;;;;17.92;8.05;;;0.50;99.90;;;;;;4863324;29;20524;-79
2023/01/22 02:03:39;;;;;;;19.38;8.40;;;0.50;99.90;;;;;;4862757;29;20485;-79
2023/01/22 02:06:08;;;;;;;19.55;8.63;;;1.40;99.90;;;;;;4878413;29;20072;-79
2023/01/22 02:08:33;;;;;;;21.63;8.25;;;0.50;99.90;;;;;;4862980;29;20049;-79
2023/01/22 02:10:59;;;;;;;24.25;9.70;;;0.50;99.90;;;;;;4881118;29;20040;-79
2023/01/22 02:13:30;;;;;;;15.75;7.25;;;0.50;99.90;;;;;;4878307;29;20042;-79
2023/01/22 02:15:56;;;;;;;20.42;9.15;;;0.90;99.90;;;;;;4885377;29;20096;-79
2023/01/22 02:18:21;;;;;;;21.92;8.68;;;0.50;99.90;;;;;;4875076;29;20060;-79
2023/01/22 02:20:52;;;;;;;20.55;8.10;;;0.60;99.90;;;;;;4874665;29;20059;-79
2023/01/22 02:23:18;;;;;;;18.92;8.73;;;2.00;99.90;;;;;;4888196;29;20126;-79
2023/01/22 02:25:43;;;;;;;21.38;8.27;;;0.60;99.90;;;;;;4882012;29;20140;-79
2023/01/22 02:28:09;;;;;;;14.33;7.90;;;1.20;99.90;;;;;;4881064;29;20036;-79
2023/01/22 02:30:34;;;;;;;17.42;7.25;;;0.70;99.90;;;;;;4865135;29;20099;-79
2023/01/22 02:33:00;;;;;;;15.80;7.27;;;1.10;99.90;;;;;;4895905;29;20040;-79
2023/01/22 02:35:26;;;;;;;16.13;7.03;;;0.90;99.90;;;;;;4895841;29;20292;-79
2023/01/22 02:37:51;;;;;;;14.93;6.83;;;2.30;99.90;;;;;;4870603;29;20291;-79
2023/01/22 02:40:17;;;;;;;15.13;6.33;;;0.90;99.90;;;;;;4871702;29;20620;-79
2023/01/22 02:42:43;;;;;;;12.88;6.45;;;1.00;99.90;;;;;;4891121;29;20852;-79
2023/01/22 02:45:09;;;;;;;12.77;6.28;;;1.00;99.90;;;;;;4869897;29;20037;-79
2023/01/22 02:47:35;;;;;;;14.43;6.65;;;1.00;99.90;;;;;;4871552;29;20147;-79
2023/01/22 02:50:01;;;;;;;14.13;6.03;;;1.00;99.90;;;;;;4894476;29;20052;-79
2023/01/22 02:52:27;;;;;;;13.98;5.95;;;1.00;99.90;;;;;;4894084;29;20505;-79
2023/01/22 02:54:53;;;;;;;12.75;6.75;;;1.00;99.90;;;;;;4893957;29;20051;-78
2023/01/22 02:57:18;;;;;;;11.17;5.50;;;1.00;99.90;;;;;;4896425;29;20563;-79
2023/01/22 02:59:44;;;;;;;14.20;5.40;;;2.00;99.90;;;;;;4894041;29;20303;-79
2023/01/22 03:02:10;;;;;;;13.70;5.60;;;2.40;99.90;;;;;;4871344;29;20033;-79
2023/01/22 03:04:36;;;;;;;14.27;5.53;;;1.00;99.90;;;;;;4866156;29;20044;-79
2023/01/22 03:07:01;;;;;;;12.40;4.53;;;1.00;99.90;;;;;;4881549;29;20051;-79
2023/01/22 03:09:28;;;;;;;12.43;5.20;;;1.00;99.90;;;;;;4889127;29;20745;-79
2023/01/22 03:11:54;;;;;;;9.77;4.97;;;1.00;99.90;;;;;;4857989;29;20364;-79
2023/01/22 03:22:34;;;;;;;7.57;3.97;;;1.00;99.90;;;;;;4897676;29;20060;-79
2023/01/22 03:25:00;;;;;;;7.70;4.00;;;1.40;99.90;;;;;;4900323;29;20044;-79
2023/01/22 03:27:27;;;;;;;7.65;3.72;;;1.00;99.90;;;;;;4897614;29;20048;-79
2023/01/22 03:29:53;;;;;;;7.22;4.07;;;1.10;99.90;;;;;;4900272;29;20043;-79
2023/01/22 03:32:20;;;;;;;8.18;4.22;;;1.10;99.90;;;;;;4877950;29;20083;-79
2023/01/22 03:34:46;;;;;;;7.13;3.72;;;1.10;99.90;;;;;;4864950;29;20494;-79
2023/01/22 03:37:12;;;;;;;6.53;3.47;;;1.10;99.90;;;;;;4881737;29;20123;-79
2023/01/22 03:39:41;;;;;;;9.10;4.28;;;1.10;99.90;;;;;;4884692;29;20044;-79
2023/01/22 03:42:07;;;;;;;6.95;3.72;;;1.10;99.90;;;;;;4887314;29;20036;-79
2023/01/22 03:44:33;;;;;;;7.30;3.33;;;1.10;99.90;;;;;;4892695;29;20076;-79
2023/01/22 03:46:59;;;;;;;10.13;4.00;;;1.20;99.90;;;;;;4880736;29;20201;-79
2023/01/22 03:49:24;;;;;;;6.70;3.47;;;1.20;99.90;;;;;;4888400;29;20040;-79
2023/01/22 03:51:50;;;;;;;9.30;3.35;;;1.20;99.90;;;;;;4865001;29;20043;-79
2023/01/22 03:54:16;;;;;;;6.93;3.33;;;1.20;99.90;;;;;;4883028;29;20041;-79
2023/01/22 03:56:42;;;;;;;7.03;3.53;;;2.00;99.90;;;;;;4864773;29;20112;-79
2023/01/22 03:59:09;;;;;;;5.72;3.38;;;1.20;99.90;;;;;;4865248;29;20044;-79
2023/01/22 04:01:35;;;;;;;7.53;3.55;;;2.60;99.90;;;;;;4880551;29;20054;-79
2023/01/22 04:04:01;;;;;;;7.05;3.15;;;1.20;99.90;;;;;;4880693;29;20573;-79
2023/01/22 04:06:30;;;;;;;9.10;3.30;;;1.20;99.90;;;;;;4867050;29;20051;-78
2023/01/22 04:08:55;;;;;;;7.13;3.60;;;1.20;99.90;;;;;;4866537;29;20285;-79
2023/01/22 04:11:22;;;;;;;6.15;3.25;;;1.20;99.90;;;;;;4864321;29;20052;-79
2023/01/22 04:13:47;;;;;;;6.75;3.15;;;1.20;99.90;;;;;;4879890;29;20052;-79
2023/01/22 04:16:14;;;;;;;7.82;3.63;;;1.20;99.90;;;;;;4871511;29;20417;-80
2023/01/22 04:18:40;;;;;;;8.52;3.70;;;1.20;99.90;;;;;;4898225;29;20100;-79
2023/01/22 04:21:07;;;;;;;7.80;3.15;;;1.20;99.90;;;;;;4895951;29;20462;-79
2023/01/22 04:23:33;;;;;;;5.72;3.28;;;1.20;99.90;;;;;;4895058;29;20040;-79
2023/01/22 04:25:59;;;;;;;5.78;3.42;;;1.20;99.90;;;;;;4888847;29;20047;-79
2023/01/22 04:28:24;;;;;;;7.63;4.03;;;2.00;99.90;;;;;;4898808;29;20048;-79
2023/01/22 04:30:53;;;;;;;8.88;3.38;;;1.20;99.90;;;;;;4855212;29;20068;-79
2023/01/22 04:33:19;;;;;;;6.05;3.22;;;1.20;99.90;;;;;;4889823;29;20044;-79
2023/01/22 04:35:49;;;;;;;7.03;3.03;;;1.60;99.90;;;;;;4890507;29;20123;-79
2023/01/22 04:38:15;;;;;;;6.78;3.50;;;1.20;99.90;;;;;;4864331;29;20108;-79
2023/01/22 04:40:40;;;;;;;6.73;3.70;;;2.50;99.90;;;;;;4850293;29;20045;-79
2023/01/22 04:43:07;;;;;;;6.28;3.33;;;1.30;99.90;;;;;;4888775;29;20303;-78
2023/01/22 04:45:33;;;;;;;;;;;1.20;99.90;;;;;;4887349;29;20048;-79
2023/01/22 04:47:58;;;;;;;6.35;3.63;;;1.30;99.90;;;;;;4898197;29;19978;-78
2023/01/22 04:50:27;;;;;;;6.82;3.75;;;1.30;99.90;;;;;;4864100;29;20047;-78
2023/01/22 04:52:54;;;;;;;9.23;3.70;;;1.30;99.90;;;;;;4878981;29;20052;-78
2023/01/22 04:55:20;;;;;;;5.85;3.17;;;1.40;99.90;;;;;;4891528;29;20402;-78
2023/01/22 04:57:46;;;;;;;;;;;1.30;99.90;;;;;;4889275;29;20062;-78
2023/01/22 05:00:12;;;;;;;5.30;3.30;;;2.10;99.90;;;;;;4887826;29;19919;-80
2023/01/22 05:02:41;;;;;;;;;;;1.30;99.90;;;;;;4863571;29;20488;-78
2023/01/22 05:05:08;;;;;;;10.32;3.88;;;1.30;99.90;;;;;;4896308;29;20129;-78
2023/01/22 05:07:34;;;;;;;8.63;3.58;;;1.30;99.90;;;;;;4863465;29;20041;-79
2023/01/22 05:09:59;;;;;;;5.80;3.47;;;2.80;99.90;;;;;;4882063;29;20123;-78
2023/01/22 05:12:25;;;;;;;5.67;3.47;;;1.30;99.90;;;;;;4880048;29;20127;-78
2023/01/22 05:14:51;;;;;;;6.32;3.60;;;1.30;99.90;;;;;;4897268;29;20284;-78
2023/01/22 05:17:17;;;;;;;7.10;3.33;;;1.30;99.90;;;;;;4884175;29;20049;-79
2023/01/22 05:19:42;;;;;;;8.02;3.92;;;1.40;99.90;;;;;;4863434;29;20425;-78
2023/01/22 05:22:08;;;;;;;5.90;3.67;;;1.40;99.90;;;;;;4883867;29;20044;-79
2023/01/22 05:24:34;;;;;;;7.78;3.88;;;1.60;99.90;;;;;;4877847;29;20095;-78
2023/01/22 05:27:00;;;;;;;8.57;3.72;;;1.50;99.90;;;;;;4857891;29;20369;-78
2023/01/22 05:29:26;;;;;;;9.70;4.07;;;1.30;99.90;;;;;;4897586;29;20041;-78
2023/01/22 05:31:53;;;;;;;6.78;4.28;;;2.30;99.90;;;;;;4851457;29;20052;-79
2023/01/22 05:34:19;;;;;;;10.27;4.22;;;2.40;99.90;;;;;;4865196;29;20048;-79
2023/01/22 05:36:44;;;;;;;6.65;3.40;;;1.30;99.90;;;;;;4870626;29;20493;-79
2023/01/22 05:39:10;;;;;;;10.03;3.90;;;1.80;99.90;;;;;;4889690;29;20119;-79
2023/01/22 05:41:36;;;;;;;7.85;4.07;;;1.50;99.90;;;;;;4883009;29;20413;-78
2023/01/22 05:44:02;;;;;;;6.93;3.50;;;1.20;99.90;;;;;;4880991;29;20502;-79
2023/01/22 05:46:28;;;;;;;8.07;4.20;;;1.30;99.90;;;;;;4866272;29;20383;-79
2023/01/22 05:48:55;;;;;;;5.57;3.22;;;1.20;99.90;;;;;;4891298;29;20124;-79
2023/01/22 05:51:21;;;;;;;10.15;3.92;;;1.20;99.90;;;;;;4878329;29;20044;-79
2023/01/22 05:53:47;;;;;;;7.05;3.63;;;1.20;99.90;;;;;;4862463;29;20044;-79
2023/01/22 05:56:12;;;;;;;6.60;3.97;;;1.90;99.90;;;;;;4881596;29;20142;-79
2023/01/22 05:58:38;;;;;;;9.70;4.03;;;2.30;99.90;;;;;;4896726;29;20295;-79
2023/01/22 06:01:04;;;;;;;5.78;3.88;;;1.20;99.90;;;;;;4891944;29;20490;-78
2023/01/22 06:03:30;;;;;;;9.40;4.03;;;1.10;99.90;;;;;;4863220;29;20386;-79
2023/01/22 06:05:57;;;;;;;6.65;3.75;;;1.20;99.90;;;;;;4888809;29;20048;-78
2023/01/22 06:08:23;;;;;;;7.38;4.45;;;1.30;99.90;;;;;;4887938;29;20450;-78
2023/01/22 06:10:49;;;;;;;7.13;4.30;;;1.20;99.90;;;;;;4882232;29;20056;-78
2023/01/22 06:13:15;;;;;;;8.15;4.47;;;1.10;99.90;;;;;;4875586;29;20414;-78
2023/01/22 06:15:42;;;;;;;9.20;4.40;;;1.10;99.90;;;;;;4846767;29;20036;-78
2023/01/22 06:18:09;;;;;;;10.15;4.00;;;1.10;99.90;;;;;;4877960;29;20482;-78
2023/01/22 06:20:35;;;;;;;7.32;4.32;;;1.10;99.90;;;;;;4888991;29;20127;-78
2023/01/22 06:23:01;;;;;;;6.47;3.83;;;1.10;99.90;;;;;;4877422;29;20080;-78
2023/01/22 06:25:26;;;;;;;7.18;4.00;;;1.10;99.90;;;;;;4878469;29;20096;-78
2023/01/22 06:27:52;;;;;;;6.22;4.22;;;1.10;99.90;;;;;;4862046;29;20048;-78
2023/01/22 06:30:18;;;;;;;7.80;3.75;;;1.10;99.90;;;;;;4864234;29;20111;-78
2023/01/22 06:32:44;;;;;;;7.90;4.55;;;1.10;99.90;;;;;;4851200;29;20339;-78
2023/01/22 06:35:09;;;;;;;6.37;3.77;;;2.50;99.90;;;;;;4865714;29;20048;-78
2023/01/22 06:37:35;;;;;;;7.20;4.20;;;2.80;99.90;;;;;;4885702;29;20033;-79
2023/01/22 06:40:01;;;;;;;6.53;4.10;;;2.40;99.90;;;;;;4880120;29;20123;-79
2023/01/22 06:42:26;;;;;;;8.07;4.45;;;1.10;99.90;;;;;;4876438;29;20268;-78
2023/01/22 06:44:52;;;;;;;7.40;4.55;;;1.10;99.90;;;;;;4896076;29;20107;-78
2023/01/22 06:47:18;;;;;;;8.82;4.50;;;1.10;99.90;;;;;;4875478;29;20075;-78
2023/01/22 06:49:43;;;;;;;7.72;4.25;;;1.00;99.90;;;;;;4888185;29;20119;-78
2023/01/22 06:52:09;;;;;;;9.80;4.38;;;1.30;99.90;;;;;;4892884;29;20044;-79
2023/01/22 06:54:35;;;;;;;9.10;4.63;;;1.00;99.90;;;;;;4880921;29;20068;-79
2023/01/22 06:57:00;;;;;;;7.82;4.60;;;1.00;99.90;;;;;;4891689;29;20445;-79
2023/01/22 06:59:26;;;;;;;9.25;4.70;;;1.00;99.90;;;;;;4896351;29;20036;-79
2023/01/22 07:01:52;;;;;;;9.02;4.47;;;1.00;99.90;;;;;;4895557;29;20151;-79
2023/01/22 07:04:17;;;;;;;10.05;4.65;;;1.00;99.90;;;;;;4869616;29;20076;-79
2023/01/22 07:06:43;;;;;;;8.75;4.78;;;1.00;99.90;;;;;;4880361;29;20040;-79
2023/01/22 07:09:09;;;;;;;7.38;4.85;;;0.90;99.90;;;;;;4880691;29;20536;-79
2023/01/22 07:11:35;;;;;;;7.45;5.03;;;1.00;99.90;;;;;;4865365;29;20485;-79
2023/01/22 07:14:00;;;;;;;7.90;4.85;;;0.90;99.90;;;;;;4877472;29;20449;-79
2023/01/22 07:16:26;;;;;;;8.30;4.72;;;0.90;99.90;;;;;;4868567;29;20068;-79
2023/01/22 07:18:52;;;;;;;7.45;4.78;;;0.90;99.90;;;;;;4859781;29;20119;-79
2023/01/22 07:21:17;;;;;;;9.70;4.88;;;0.90;99.90;;;;;;4886662;29;20064;-79
2023/01/22 07:23:43;;;;;;;7.90;5.25;;;0.90;99.90;;;;;;4862080;29;20100;-79
2023/01/22 07:26:09;;;;;;;9.13;5.43;;;0.90;99.90;;;;;;4885447;29;20504;-79
2023/01/22 07:28:35;;;;;;;9.27;4.40;;;0.90;99.90;;;;;;4896337;29;20040;-79
2023/01/22 07:31:02;;;;;;;8.90;4.88;;;0.90;99.90;;;;;;4880121;29;20308;-79
2023/01/22 07:33:30;;;;;;;6.88;4.57;;;0.80;99.90;;;;;;4871475;29;20036;-79
2023/01/22 07:35:57;;;;;;;7.53;4.90;;;0.80;99.90;;;;;;4886030;29;20108;-79
2023/01/22 07:38:25;;;;;;;8.85;4.97;;;1.10;99.90;;;;;;4886085;29;20032;-80
2023/01/22 07:40:50;;;;;;;10.00;5.30;;;1.50;99.90;;;;;;4886838;29;20076;-80
2023/01/22 07:43:16;;;;;;;9.68;4.95;;;1.80;99.90;;;;;;4845691;29;20630;-80
2023/01/22 07:45:42;;;;;;;8.05;5.07;;;0.70;99.90;;;;;;4861831;29;20120;-80
2023/01/22 07:48:09;;;;;;;6.60;5.10;;;0.70;99.90;;;;;;4891397;29;20078;-78
2023/01/22 07:50:36;;;;;;;8.75;5.25;;;0.70;99.90;;;;;;4865450;29;20056;-78
2023/01/22 07:53:01;;;;;;;;;;;0.70;99.90;;;;;;4875985;29;20515;-78
2023/01/22 07:55:28;;;;;;;8.88;5.25;;;2.00;99.90;;;;;;4885654;29;19919;-80
2023/01/22 07:58:02;;;;;;;9.25;5.95;;;0.70;99.90;;;;;;4899087;29;20047;-78
2023/01/22 08:00:28;;;;;;;8.18;5.53;;;0.70;99.90;;;;;;4898935;29;20095;-78
2023/01/22 08:02:54;;;;;;;8.13;5.18;;;0.80;99.90;;;;;;4889933;29;20130;-78
2023/01/22 08:05:20;;;;;;;9.53;5.27;;;0.70;99.90;;;;;;4865587;29;20173;-79
2023/01/22 08:07:46;;;;;;;8.60;5.07;;;0.70;99.90;;;;;;4879901;29;20304;-79
2023/01/22 08:10:13;;;;;;;7.88;4.90;;;0.70;99.90;;;;;;4872374;29;20124;-78
2023/01/22 08:12:41;;;;;;;10.82;5.55;;;0.70;99.90;;;;;;4864773;29;20036;-78
2023/01/22 08:15:08;;;;;;;8.90;5.30;;;0.70;99.90;;;;;;4879957;29;20032;-78
2023/01/22 08:17:34;;;;;;;7.65;4.90;;;0.70;99.90;;;;;;4896119;29;20060;-79
2023/01/22 08:19:59;;;;;;;9.10;5.30;;;0.60;99.90;;;;;;4882037;29;20445;-78
2023/01/22 08:22:25;;;;;;;8.47;5.37;;;0.70;99.90;;;;;;4886617;29;20497;-79
2023/01/22 08:24:52;;;;;;;9.63;5.73;;;0.70;99.90;;;;;;4894216;29;20288;-79
2023/01/22 08:27:19;;;;;;;9.70;5.65;;;0.70;99.90;;;;;;4890868;29;20602;-78
2023/01/22 08:29:44;;;;;;;8.38;5.07;;;0.70;99.90;;;;;;4881692;29;20100;-76
2023/01/22 08:32:10;;;;;;;7.20;4.80;;;0.70;99.90;;;;;;4898295;29;20043;-77
2023/01/22 08:34:36;;;;;;;9.85;5.38;;;0.70;99.90;;;;;;4898780;29;20924;-76
2023/01/22 08:37:02;;;;;;;9.73;5.83;;;0.70;99.90;;;;;;4864360;29;20075;-77
2023/01/22 08:39:31;;;;;;;8.70;5.18;;;0.70;99.90;;;;;;4875707;29;20295;-77
2023/01/22 08:41:56;;;;;;;8.70;5.40;;;0.80;99.90;;;;;;4896127;29;20123;-77
2023/01/22 08:44:23;;;;;;;11.13;6.15;;;0.70;99.90;;;;;;4880868;29;20123;-79
2023/01/22 08:46:49;;;;;;;;;;;0.70;99.90;;;;;;4893302;29;20055;-79
2023/01/22 08:49:15;;;;;;;9.38;5.63;;;0.90;99.90;;;;;;4898117;29;19919;-78
2023/01/22 08:51:40;;;;;;;11.43;5.38;;;0.70;99.90;;;;;;4877218;29;20048;-78
2023/01/22 08:54:06;;;;;;;8.33;5.13;;;0.70;99.90;;;;;;4878100;29;20119;-78
2023/01/22 08:56:32;;;;;;;9.63;5.50;;;0.60;99.90;;;;;;4879613;29;20498;-78
2023/01/22 08:58:59;;;;;;;9.03;4.60;;;0.70;99.90;;;;;;4870961;29;20040;-78
2023/01/22 09:01:25;;;;;;;10.95;4.78;;;0.60;99.90;;;;;;4878244;29;20375;-79
2023/01/22 09:03:51;;;;;;;9.25;5.05;;;1.20;99.90;;;;;;4880198;29;20525;-79
2023/01/22 09:06:17;;;;;;;8.43;5.47;;;1.20;99.90;;;;;;4863857;29;20049;-77
2023/01/22 09:08:42;;;;;;;10.55;5.00;;;2.40;99.90;;;;;;4879372;29;20490;-77
2023/01/22 09:11:08;;;;;;;8.15;4.85;;;0.70;99.90;;;;;;4863508;29;20108;-79
2023/01/22 09:13:34;;;;;;;8.45;4.40;;;0.70;99.90;;;;;;4863876;29;20409;-75
2023/01/22 09:16:00;;;;;;;9.52;5.15;;;0.70;99.90;;;;;;4863618;29;20454;-77
2023/01/22 09:18:26;;;;;;;7.65;4.45;;;0.70;99.90;;;;;;4889965;29;20048;-76
2023/01/22 09:20:51;;;;;;;13.63;5.22;;;0.70;99.90;;;;;;4881633;29;20048;-77
2023/01/22 09:23:17;;;;;;;9.23;4.50;;;0.70;99.90;;;;;;4898088;29;20098;-78
2023/01/22 09:25:43;;;;;;;10.32;4.55;;;0.80;99.90;;;;;;4897931;29;20044;-77
2023/01/22 09:28:11;;;;;;;8.45;4.60;;;0.80;99.90;;;;;;4866766;29;20068;-77
2023/01/22 09:30:41;;;;;;;6.90;4.40;;;0.80;99.90;;;;;;4870379;29;20044;-78
2023/01/22 09:33:07;;;;;;;9.90;5.20;;;2.40;99.90;;;;;;4895071;29;20044;-78
2023/01/22 09:35:33;;;;;;;10.02;4.65;;;0.80;99.90;;;;;;4879060;29;20049;-78
2023/01/22 09:38:00;;;;;;;9.68;4.60;;;0.80;99.90;;;;;;4847712;29;20040;-77
2023/01/22 09:40:34;;;;;;;14.48;5.32;;;1.00;99.90;;;;;;4894347;29;20489;-77
2023/01/22 09:43:30;;;;;;;9.07;5.35;;;1.00;99.90;;;;;;4862773;29;20080;-77
2023/01/22 09:46:01;;;;;;;9.57;4.65;;;1.10;99.90;;;;;;4878424;29;20051;-80
2023/01/22 09:48:40;;;;;;;10.02;5.10;;;1.10;99.90;;;;;;4886571;29;20189;-79
2023/01/22 09:51:06;;;;;;;8.88;4.85;;;1.10;99.90;;;;;;4881832;29;20040;-80
2023/01/22 09:53:32;;;;;;;10.43;4.82;;;1.20;99.90;;;;;;4889412;29;20713;-80
2023/01/22 09:56:00;;;;;;;9.15;4.28;;;1.30;99.90;;;;;;4897612;29;20055;-78
2023/01/22 09:58:26;;;;;;;7.82;4.40;;;2.60;99.90;;;;;;4897578;29;20093;-79
2023/01/22 10:01:04;;;;;;;9.50;4.90;;;1.50;99.90;;;;;;4895294;29;20052;-79
2023/01/22 10:03:51;;;;;;;10.70;4.75;;;1.40;99.90;;;;;;4894195;29;20044;-79
2023/01/22 10:06:23;;;;;;;7.80;4.63;;;1.50;99.90;;;;;;4880131;29;20047;-79
2023/01/22 10:09:06;;;;;;;9.02;4.43;;;1.40;99.90;;;;;;4872662;29;20044;-78
2023/01/22 10:11:33;;;;;;;10.73;5.43;;;1.40;99.90;;;;;;4894583;29;20044;-79
2023/01/22 10:14:01;;;;;;;8.60;4.68;;;1.50;99.90;;;;;;4865207;29;20122;-77
2023/01/22 10:16:27;;;;;;;8.90;4.93;;;1.50;99.90;;;;;;4836916;29;20041;-78
2023/01/22 10:19:05;;;;;;;9.02;4.90;;;1.50;99.90;;;;;;4870390;29;20501;-77
2023/01/22 10:21:51;;;;;;;;;;;3.00;99.90;;;;;;4885180;29;20052;-77
2023/01/22 10:24:20;;;;;;;7.97;5.00;;;1.70;99.90;;;;;;4859066;29;20399;-77
2023/01/22 10:26:53;;;;;;;7.35;4.47;;;1.80;99.90;;;;;;4846488;29;20048;-79
2023/01/22 10:29:29;;;;;;;11.52;4.53;;;1.80;99.90;;;;;;4885749;29;20054;-78
2023/01/22 10:32:01;;;;;;;12.63;5.35;;;1.80;99.90;;;;;;4884709;29;20481;-78
2023/01/22 10:34:36;;;;;;;8.90;5.05;;;1.90;99.90;;;;;;4880070;29;20385;-78
2023/01/22 10:37:18;;;;;;;7.00;4.70;;;2.20;99.90;;;;;;4857487;29;20047;-77
2023/01/22 10:39:46;;;;;;;9.52;4.85;;;2.00;99.90;;;;;;4859797;29;20041;-77
2023/01/22 10:42:19;;;;;;;9.05;4.50;;;1.90;99.90;;;;;;4875927;29;20071;-77
2023/01/22 10:44:45;;;;;;;9.07;4.80;;;1.90;99.90;;;;;;4880260;29;20055;-78
2023/01/22 10:47:19;;;;;;;10.90;5.93;;;2.00;99.90;;;;;;4882380;29;20040;-78
2023/01/22 10:50:09;;;;;;;7.45;4.32;;;1.90;99.90;;;;;;4888474;29;20045;-78
2023/01/22 10:52:43;;;;;;;8.02;4.90;;;1.90;99.90;;;;;;4875762;29;20152;-77
2023/01/22 10:55:31;;;;;;;8.88;4.85;;;1.90;99.90;;;;;;4869496;29;20037;-77
2023/01/22 10:58:06;;;;;;;8.27;4.70;;;1.90;99.90;;;;;;4883776;29;20045;-77
2023/01/22 11:00:34;;;;;;;8.57;4.03;;;2.00;99.90;;;;;;4880740;29;20075;-77
2023/01/22 11:03:00;;;;;;;6.70;3.95;;;2.00;99.90;;;;;;4862790;29;20123;-77
2023/01/22 11:05:35;;;;;;;8.30;4.18;;;2.90;99.90;;;;;;4886027;29;20397;-78
2023/01/22 11:08:06;;;;;;;7.07;4.20;;;2.10;99.90;;;;;;4881228;29;20040;-77
2023/01/22 11:11:07;;;;;;;9.23;4.20;;;2.10;99.90;;;;;;4876125;29;20032;-77
2023/01/22 11:13:54;;;;;;;7.85;4.35;;;2.20;99.90;;;;;;4829306;29;20040;-79
2023/01/22 11:16:23;;;;;;;7.35;3.88;;;2.20;99.90;;;;;;4878263;29;20044;-79
2023/01/22 11:19:04;;;;;;;6.60;3.88;;;2.30;99.90;;;;;;4855140;29;20093;-78
2023/01/22 11:21:51;;;;;;;6.70;4.22;;;2.40;99.90;;;;;;4875298;29;20056;-78
2023/01/22 11:24:21;;;;;;;;;;;2.00;99.90;;;;;;4873916;29;20060;-78
2023/01/22 11:27:18;;;;;;;7.85;4.20;;;1.00;99.90;;;;;;4875499;29;20051;-78
2023/01/22 11:30:02;;;;;;;7.47;4.03;;;2.30;99.90;;;;;;4889535;29;20048;-78
2023/01/22 11:32:33;;;;;;;9.27;4.32;;;2.30;99.90;;;;;;4872319;29;20053;-78
2023/01/22 11:35:29;;;;;;;7.78;4.45;;;2.30;99.90;;;;;;4879934;29;20123;-78
2023/01/22 11:38:15;;;;;;;7.93;4.18;;;2.30;99.90;;;;;;4862097;29;20043;-78
2023/01/22 11:41:08;;;;;;;6.40;4.22;;;2.40;99.90;;;;;;4883185;29;20040;-78
2023/01/22 11:43:39;;;;;;;6.68;3.75;;;2.50;99.90;;;;;;4897645;29;20044;-79
2023/01/22 11:46:26;;;;;;;6.85;4.53;;;2.40;99.90;;;;;;4892826;29;20040;-79
2023/01/22 11:48:55;;;;;;;;;;;2.50;99.90;;;;;;4872329;29;20044;-78
2023/01/22 11:51:43;;;;;;;5.95;3.80;;;2.60;99.90;;;;;;4886432;29;19946;-79
2023/01/22 11:54:30;;;;;;;6.78;4.13;;;2.60;99.90;;;;;;4884737;29;20041;-79
2023/01/22 11:57:15;;;;;;;;;;;2.70;99.90;;;;;;4877994;29;20041;-80
2023/01/22 12:00:14;;;;;;;9.88;4.13;;;2.70;99.90;;;;;;4887618;29;19987;-79
2023/01/22 12:03:08;;;;;;;6.75;3.83;;;2.80;99.90;;;;;;4845432;29;20140;-78
2023/01/22 12:05:42;;;;;;;7.53;4.18;;;3.40;99.90;;;;;;4886143;29;20536;-78
2023/01/22 12:08:23;;;;;;;6.47;3.95;;;2.90;99.90;;;;;;4887450;29;20036;-77
2023/01/22 12:11:26;;;;;;;6.13;3.63;;;3.10;99.90;;;;;;4880525;29;20041;-78
2023/01/22 12:14:09;;;;;;;7.72;3.63;;;3.10;99.90;;;;;;4880261;29;20166;-78
2023/01/22 12:17:13;;;;;;;7.63;3.65;;;3.20;99.90;;;;;;4883907;29;20628;-77
2023/01/22 12:19:59;;;;;;;6.13;3.50;;;3.70;99.90;;;;;;4843312;29;20044;-78
2023/01/22 12:22:44;;;;;;;5.80;3.85;;;3.30;99.90;;;;;;4880171;29;20045;-78
2023/01/22 12:25:26;;;;;;;8.18;3.58;;;3.30;99.90;;;;;;4887437;29;20139;-77
2023/01/22 12:28:46;;;;;;;7.75;4.32;;;3.30;99.90;;;;;;4880492;29;20040;-77
2023/01/22 12:31:46;;;;;;;10.15;4.53;;;3.10;99.90;;;;;;4843742;29;20063;-78
2023/01/22 12:34:37;;;;;;;6.60;3.75;;;3.30;99.90;;;;;;4867520;29;20072;-78
2023/01/22 12:37:04;;;;;;;5.05;3.45;;;3.20;99.90;;;;;;4883309;29;20044;-78
2023/01/22 12:39:40;;;;;;;6.57;4.20;;;3.40;99.90;;;;;;4865431;29;20053;-78
2023/01/22 12:42:05;;;;;;;10.52;4.30;;;3.00;99.90;;;;;;4895101;29;20490;-78
2023/01/22 12:44:49;;;;;;;6.90;3.63;;;3.00;99.90;;;;;;4886655;29;20043;-78
2023/01/22 12:47:23;;;;;;;10.10;4.75;;;3.00;99.90;;;;;;4867216;29;20478;-78
2023/01/22 12:49:51;;;;;;;7.15;4.38;;;3.00;99.90;;;;;;4894829;29;20480;-78
2023/01/22 12:52:36;;;;;;;6.45;3.60;;;2.90;99.90;;;;;;4864189;29;20037;-78
2023/01/22 12:55:21;;;;;;;7.35;4.47;;;2.90;99.90;;;;;;4879958;29;20060;-78
2023/01/22 12:57:47;;;;;;;5.03;3.60;;;2.90;99.90;;;;;;4880354;29;20045;-78
2023/01/22 13:00:35;;;;;;;9.57;4.35;;;3.90;99.90;;;;;;4897801;29;20035;-78
2023/01/22 13:03:27;;;;;;;7.78;4.30;;;2.90;99.90;;;;;;4898605;29;20059;-78
2023/01/22 13:05:53;;;;;;;7.90;4.97;;;3.20;99.90;;;;;;4872497;29;20053;-78
2023/01/22 13:08:19;;;;;;;8.25;4.95;;;2.80;99.90;;;;;;4875383;29;20044;-79
2023/01/22 13:10:54;;;;;;;8.63;4.17;;;4.00;99.90;;;;;;4884531;29;20095;-79
2023/01/22 13:13:41;;;;;;;8.57;4.68;;;2.80;99.90;;;;;;4879304;29;20045;-79
2023/01/22 13:16:19;;;;;;;8.67;4.10;;;2.80;99.90;;;;;;4879885;29;20462;-79
2023/01/22 13:18:49;;;;;;;8.57;4.20;;;2.80;99.90;;;;;;4872371;29;20632;-78